Aérodrome :
LOGIN :

S'inscrire | Disclaimer

   EN    FR    IT 

 










Légende :    VFR   VFR Marginal   IFR   IFR Intensif   IFR Très Intensif
Visi : 
Plafond : 
>= 8 km
>= 3000ft
5 à 8 km
1000 à 3000 ft
1500m à 5 km
500 à 1000 ft
800 à 1500m
200 à 500 ft
< 800m
< 200 ft
Symboles :   Orages  Brouillard  Fortes neiges  Fortes précipitations  Vent > 20 kt
SIGMETs :   Divers  Orages  Givrage  Turbulence  Onde Orograph.  Cendres Volcan.






- Altitude de l'aérodrome : 218 ft


EGYD - RAF Cranwell

DERNIER METAR :
  • 281250Z 16022KT 9999 RA OVC006 04/03 Q1000 RMK YLO1

METARs EXPIRÉS :
  • 281150Z 15019KT 9999 RASN OVC008 04/03 Q1002 RMK GRN
  • 281120Z 15016KT 9999 -RASN OVC008 04/03 Q1004 TEMPO 6000 BKN006 RMK GRN TEMPO YLO1
  • 281050Z 16017KT 9999 -RA BKN008 OVC020 03/03 Q1005 TEMPO 6000 -RASN SCT006 RMK GRN TEMPO YLO1
  • 281020Z 17015KT 9999 -RA BKN008 OVC022 03/02 Q1006 TEMPO 6000 RA SCT006 RMK GRN TEMPO YLO1

TAF TAF EGYD
Valide du 28 à 12h jusqu'au 28 à 18h UTC


281056Z 2812/2818 15018G28KT 9999 BKN008
TEMPO 2812/2818 6000 RA BKN006
PROB30
TEMPO 2813/2817 3000 RADZ BKN004
BECMG 2816/2818 19018G28KT



MET'MAP, la Météo Aéronautique d'un coup d'oeil ! - Copyright ORBIFLY Décembre 2007 - Disclaimer

ORBIFLY MET'MAP TEAM :

Programmation & Développement : Alexandra Zaïnal
Sur une idée originale de : Baudouin d'Aumeries
Assistance à la programmation : Marc-Olivier Méhu
Soutien technique & logistique : Manuel Goepfert

Contact : metmap@orbifly.com




SOURCES & CREDITS :

   NOAA